sensor_id;sensor_type;location;lat;lon;timestamp;P1;durP1;ratioP1;P2;durP2;ratioP2
69083;SDS011;56185;48.526;9.044;2024-03-02T00:01:47;8.88;;;5.47;;
69083;SDS011;56185;48.526;9.044;2024-03-02T00:04:13;8.23;;;6.13;;
69083;SDS011;56185;48.526;9.044;2024-03-02T00:06:38;10.25;;;5.93;;
69083;SDS011;56185;48.526;9.044;2024-03-02T00:09:03;9.65;;;6.40;;
69083;SDS011;56185;48.526;9.044;2024-03-02T00:11:28;7.82;;;5.70;;
69083;SDS011;56185;48.526;9.044;2024-03-02T00:13:54;11.35;;;6.35;;
69083;SDS011;56185;48.526;9.044;2024-03-02T00:16:19;8.80;;;5.38;;
69083;SDS011;56185;48.526;9.044;2024-03-02T00:18:44;9.52;;;6.20;;
69083;SDS011;56185;48.526;9.044;2024-03-02T00:21:10;8.10;;;5.75;;
69083;SDS011;56185;48.526;9.044;2024-03-02T00:23:35;8.65;;;6.00;;
69083;SDS011;56185;48.526;9.044;2024-03-02T00:26:00;9.40;;;6.40;;
69083;SDS011;56185;48.526;9.044;2024-03-02T00:28:36;8.35;;;5.60;;
69083;SDS011;56185;48.526;9.044;2024-03-02T00:31:02;11.32;;;6.38;;
69083;SDS011;56185;48.526;9.044;2024-03-02T00:35:59;9.68;;;6.70;;
69083;SDS011;56185;48.526;9.044;2024-03-02T00:38:24;10.07;;;6.88;;
69083;SDS011;56185;48.526;9.044;2024-03-02T00:40:50;10.82;;;7.20;;
69083;SDS011;56185;48.526;9.044;2024-03-02T00:43:25;11.27;;;7.47;;
69083;SDS011;56185;48.526;9.044;2024-03-02T00:46:17;9.75;;;6.80;;
69083;SDS011;56185;48.526;9.044;2024-03-02T00:49:00;10.40;;;6.93;;
69083;SDS011;56185;48.526;9.044;2024-03-02T00:51:29;10.40;;;6.63;;
69083;SDS011;56185;48.526;9.044;2024-03-02T00:53:57;11.55;;;6.85;;
69083;SDS011;56185;48.526;9.044;2024-03-02T00:56:24;11.07;;;7.30;;
69083;SDS011;56185;48.526;9.044;2024-03-02T00:58:50;10.85;;;7.40;;
69083;SDS011;56185;48.526;9.044;2024-03-02T01:01:16;11.95;;;6.85;;
69083;SDS011;56185;48.526;9.044;2024-03-02T01:03:42;9.10;;;6.60;;
69083;SDS011;56185;48.526;9.044;2024-03-02T01:06:08;11.23;;;6.75;;
69083;SDS011;56185;48.526;9.044;2024-03-02T01:08:34;9.32;;;6.72;;
69083;SDS011;56185;48.526;9.044;2024-03-02T01:11:03;9.07;;;6.50;;
69083;SDS011;56185;48.526;9.044;2024-03-02T01:13:28;9.95;;;6.93;;
69083;SDS011;56185;48.526;9.044;2024-03-02T01:15:54;10.10;;;7.00;;
69083;SDS011;56185;48.526;9.044;2024-03-02T01:18:19;9.32;;;6.82;;
69083;SDS011;56185;48.526;9.044;2024-03-02T01:20:45;14.77;;;9.95;;
69083;SDS011;56185;48.526;9.044;2024-03-02T01:23:10;13.27;;;7.90;;
69083;SDS011;56185;48.526;9.044;2024-03-02T01:25:35;14.88;;;8.45;;
69083;SDS011;56185;48.526;9.044;2024-03-02T01:28:01;10.38;;;7.00;;
69083;SDS011;56185;48.526;9.044;2024-03-02T01:30:26;10.50;;;7.60;;
69083;SDS011;56185;48.526;9.044;2024-03-02T01:32:51;11.70;;;7.05;;
69083;SDS011;56185;48.526;9.044;2024-03-02T01:35:17;11.70;;;7.43;;
69083;SDS011;56185;48.526;9.044;2024-03-02T01:37:42;12.13;;;7.22;;
69083;SDS011;56185;48.526;9.044;2024-03-02T01:40:07;11.57;;;7.20;;
69083;SDS011;56185;48.526;9.044;2024-03-02T01:42:33;13.13;;;7.30;;
69083;SDS011;56185;48.526;9.044;2024-03-02T01:44:58;10.07;;;7.00;;
69083;SDS011;56185;48.526;9.044;2024-03-02T01:47:24;10.32;;;7.25;;
69083;SDS011;56185;48.526;9.044;2024-03-02T01:49:49;9.13;;;6.13;;
69083;SDS011;56185;48.526;9.044;2024-03-02T01:52:14;10.68;;;6.60;;
69083;SDS011;56185;48.526;9.044;2024-03-02T01:54:39;10.20;;;6.60;;
69083;SDS011;56185;48.526;9.044;2024-03-02T01:57:05;10.73;;;6.60;;
69083;SDS011;56185;48.526;9.044;2024-03-02T01:59:30;9.88;;;6.82;;
69083;SDS011;56185;48.526;9.044;2024-03-02T02:01:55;10.70;;;6.70;;
69083;SDS011;56185;48.526;9.044;2024-03-02T02:04:20;12.63;;;6.95;;
69083;SDS011;56185;48.526;9.044;2024-03-02T02:06:46;10.90;;;6.78;;
69083;SDS011;56185;48.526;9.044;2024-03-02T02:09:11;10.65;;;7.10;;
69083;SDS011;56185;48.526;9.044;2024-03-02T02:11:36;9.13;;;6.47;;
69083;SDS011;56185;48.526;9.044;2024-03-02T02:14:02;9.48;;;6.30;;
69083;SDS011;56185;48.526;9.044;2024-03-02T02:16:27;11.63;;;7.40;;
69083;SDS011;56185;48.526;9.044;2024-03-02T02:18:52;11.40;;;6.97;;
69083;SDS011;56185;48.526;9.044;2024-03-02T02:21:17;8.88;;;6.57;;
69083;SDS011;56185;48.526;9.044;2024-03-02T02:23:47;9.15;;;6.70;;
69083;SDS011;56185;48.526;9.044;2024-03-02T02:26:12;10.52;;;6.97;;
69083;SDS011;56185;48.526;9.044;2024-03-02T02:28:37;10.63;;;7.22;;
69083;SDS011;56185;48.526;9.044;2024-03-02T02:31:02;9.82;;;7.15;;
69083;SDS011;56185;48.526;9.044;2024-03-02T02:33:28;10.77;;;7.25;;
69083;SDS011;56185;48.526;9.044;2024-03-02T02:35:53;10.82;;;7.00;;
69083;SDS011;56185;48.526;9.044;2024-03-02T02:38:18;10.05;;;7.38;;
69083;SDS011;56185;48.526;9.044;2024-03-02T02:40:44;9.70;;;7.03;;
69083;SDS011;56185;48.526;9.044;2024-03-02T02:43:09;9.57;;;6.88;;
69083;SDS011;56185;48.526;9.044;2024-03-02T02:45:34;9.50;;;6.68;;
69083;SDS011;56185;48.526;9.044;2024-03-02T02:47:59;10.20;;;7.00;;
69083;SDS011;56185;48.526;9.044;2024-03-02T02:50:25;9.33;;;6.57;;
69083;SDS011;56185;48.526;9.044;2024-03-02T02:52:50;11.23;;;7.47;;
69083;SDS011;56185;48.526;9.044;2024-03-02T02:55:15;10.82;;;6.93;;
69083;SDS011;56185;48.526;9.044;2024-03-02T02:57:41;10.07;;;6.93;;
69083;SDS011;56185;48.526;9.044;2024-03-02T03:00:10;9.20;;;6.63;;
69083;SDS011;56185;48.526;9.044;2024-03-02T03:02:37;10.40;;;7.20;;
69083;SDS011;56185;48.526;9.044;2024-03-02T03:05:03;9.73;;;6.40;;
69083;SDS011;56185;48.526;9.044;2024-03-02T03:07:29;11.45;;;7.00;;
69083;SDS011;56185;48.526;9.044;2024-03-02T03:09:54;11.50;;;7.85;;
69083;SDS011;56185;48.526;9.044;2024-03-02T03:12:19;9.60;;;7.35;;
69083;SDS011;56185;48.526;9.044;2024-03-02T03:14:45;11.07;;;7.35;;
69083;SDS011;56185;48.526;9.044;2024-03-02T03:17:10;11.75;;;7.65;;
69083;SDS011;56185;48.526;9.044;2024-03-02T03:19:37;10.52;;;6.50;;
69083;SDS011;56185;48.526;9.044;2024-03-02T03:22:03;12.23;;;7.35;;
69083;SDS011;56185;48.526;9.044;2024-03-02T03:24:28;11.90;;;7.15;;
69083;SDS011;56185;48.526;9.044;2024-03-02T03:26:54;9.90;;;6.93;;
69083;SDS011;56185;48.526;9.044;2024-03-02T03:29:19;11.83;;;7.40;;
69083;SDS011;56185;48.526;9.044;2024-03-02T03:31:44;13.32;;;7.45;;
69083;SDS011;56185;48.526;9.044;2024-03-02T03:34:09;11.87;;;7.00;;
69083;SDS011;56185;48.526;9.044;2024-03-02T03:36:34;11.02;;;6.75;;
69083;SDS011;56185;48.526;9.044;2024-03-02T03:39:00;10.77;;;6.80;;
69083;SDS011;56185;48.526;9.044;2024-03-02T03:41:25;12.45;;;7.13;;
69083;SDS011;56185;48.526;9.044;2024-03-02T03:43:50;11.05;;;7.13;;
69083;SDS011;56185;48.526;9.044;2024-03-02T03:46:15;13.52;;;7.20;;
69083;SDS011;56185;48.526;9.044;2024-03-02T03:48:41;11.60;;;6.43;;
69083;SDS011;56185;48.526;9.044;2024-03-02T03:51:06;12.20;;;7.07;;
69083;SDS011;56185;48.526;9.044;2024-03-02T03:53:31;11.05;;;7.05;;
69083;SDS011;56185;48.526;9.044;2024-03-02T03:55:56;10.63;;;7.10;;
69083;SDS011;56185;48.526;9.044;2024-03-02T03:58:22;9.17;;;6.47;;
69083;SDS011;56185;48.526;9.044;2024-03-02T04:00:47;10.73;;;6.37;;
69083;SDS011;56185;48.526;9.044;2024-03-02T04:03:12;11.50;;;6.40;;
69083;SDS011;56185;48.526;9.044;2024-03-02T04:05:37;11.15;;;6.97;;
69083;SDS011;56185;48.526;9.044;2024-03-02T04:08:03;12.18;;;7.63;;
69083;SDS011;56185;48.526;9.044;2024-03-02T04:10:28;10.95;;;7.40;;
69083;SDS011;56185;48.526;9.044;2024-03-02T04:12:54;10.63;;;6.78;;
69083;SDS011;56185;48.526;9.044;2024-03-02T04:15:19;9.93;;;7.05;;
69083;SDS011;56185;48.526;9.044;2024-03-02T04:17:44;11.25;;;7.38;;
69083;SDS011;56185;48.526;9.044;2024-03-02T04:20:10;11.23;;;7.20;;
69083;SDS011;56185;48.526;9.044;2024-03-02T04:22:35;10.38;;;6.80;;
69083;SDS011;56185;48.526;9.044;2024-03-02T04:25:01;11.97;;;7.27;;
69083;SDS011;56185;48.526;9.044;2024-03-02T04:27:26;11.20;;;7.32;;
69083;SDS011;56185;48.526;9.044;2024-03-02T04:29:52;9.55;;;6.85;;
69083;SDS011;56185;48.526;9.044;2024-03-02T04:32:17;11.35;;;7.35;;
69083;SDS011;56185;48.526;9.044;2024-03-02T04:34:42;12.10;;;7.03;;
69083;SDS011;56185;48.526;9.044;2024-03-02T04:37:08;10.55;;;7.05;;
69083;SDS011;56185;48.526;9.044;2024-03-02T04:39:34;9.45;;;6.75;;
69083;SDS011;56185;48.526;9.044;2024-03-02T04:42:00;11.48;;;7.07;;
69083;SDS011;56185;48.526;9.044;2024-03-02T04:44:25;10.93;;;6.95;;
69083;SDS011;56185;48.526;9.044;2024-03-02T04:46:50;10.68;;;6.97;;
69083;SDS011;56185;48.526;9.044;2024-03-02T04:49:15;13.23;;;6.97;;
69083;SDS011;56185;48.526;9.044;2024-03-02T04:51:41;10.30;;;7.27;;
69083;SDS011;56185;48.526;9.044;2024-03-02T04:54:06;10.67;;;7.10;;
69083;SDS011;56185;48.526;9.044;2024-03-02T04:56:31;10.10;;;6.32;;
69083;SDS011;56185;48.526;9.044;2024-03-02T04:58:56;12.27;;;7.88;;
69083;SDS011;56185;48.526;9.044;2024-03-02T05:01:22;10.05;;;7.03;;
69083;SDS011;56185;48.526;9.044;2024-03-02T05:03:47;12.60;;;7.63;;
69083;SDS011;56185;48.526;9.044;2024-03-02T05:06:12;17.50;;;7.93;;
69083;SDS011;56185;48.526;9.044;2024-03-02T05:08:37;15.98;;;8.77;;
69083;SDS011;56185;48.526;9.044;2024-03-02T05:11:03;13.10;;;8.13;;
69083;SDS011;56185;48.526;9.044;2024-03-02T05:13:28;15.75;;;8.38;;
69083;SDS011;56185;48.526;9.044;2024-03-02T05:15:53;11.30;;;7.90;;
69083;SDS011;56185;48.526;9.044;2024-03-02T05:18:18;18.88;;;8.30;;
69083;SDS011;56185;48.526;9.044;2024-03-02T05:20:44;11.02;;;7.43;;
69083;SDS011;56185;48.526;9.044;2024-03-02T05:23:09;14.48;;;7.78;;
69083;SDS011;56185;48.526;9.044;2024-03-02T05:25:34;12.57;;;7.97;;
69083;SDS011;56185;48.526;9.044;2024-03-02T05:27:59;11.57;;;7.20;;
69083;SDS011;56185;48.526;9.044;2024-03-02T05:30:24;10.27;;;6.67;;
69083;SDS011;56185;48.526;9.044;2024-03-02T05:32:50;13.75;;;8.38;;
69083;SDS011;56185;48.526;9.044;2024-03-02T05:35:15;17.63;;;9.35;;
69083;SDS011;56185;48.526;9.044;2024-03-02T05:37:40;15.02;;;9.05;;
69083;SDS011;56185;48.526;9.044;2024-03-02T05:40:06;13.52;;;8.20;;
69083;SDS011;56185;48.526;9.044;2024-03-02T05:42:31;14.27;;;8.20;;
69083;SDS011;56185;48.526;9.044;2024-03-02T05:44:57;18.67;;;10.07;;
69083;SDS011;56185;48.526;9.044;2024-03-02T05:47:22;16.83;;;9.40;;
69083;SDS011;56185;48.526;9.044;2024-03-02T05:49:47;15.15;;;7.90;;
69083;SDS011;56185;48.526;9.044;2024-03-02T05:52:12;13.95;;;8.38;;
69083;SDS011;56185;48.526;9.044;2024-03-02T05:54:38;12.23;;;7.68;;
69083;SDS011;56185;48.526;9.044;2024-03-02T05:57:03;12.20;;;7.43;;
69083;SDS011;56185;48.526;9.044;2024-03-02T05:59:28;12.05;;;7.32;;
69083;SDS011;56185;48.526;9.044;2024-03-02T06:01:53;13.63;;;8.13;;
69083;SDS011;56185;48.526;9.044;2024-03-02T06:04:19;11.40;;;7.33;;
69083;SDS011;56185;48.526;9.044;2024-03-02T06:06:44;15.25;;;7.25;;
69083;SDS011;56185;48.526;9.044;2024-03-02T06:09:09;18.30;;;7.05;;
69083;SDS011;56185;48.526;9.044;2024-03-02T06:11:35;12.95;;;7.53;;
69083;SDS011;56185;48.526;9.044;2024-03-02T06:14:00;12.18;;;7.60;;
69083;SDS011;56185;48.526;9.044;2024-03-02T06:16:26;11.43;;;7.80;;
69083;SDS011;56185;48.526;9.044;2024-03-02T06:18:51;13.68;;;8.27;;
69083;SDS011;56185;48.526;9.044;2024-03-02T06:21:16;15.23;;;8.13;;
69083;SDS011;56185;48.526;9.044;2024-03-02T06:23:42;18.45;;;8.60;;
69083;SDS011;56185;48.526;9.044;2024-03-02T06:26:07;13.25;;;8.70;;
69083;SDS011;56185;48.526;9.044;2024-03-02T06:28:32;15.13;;;8.05;;
69083;SDS011;56185;48.526;9.044;2024-03-02T06:30:58;17.27;;;8.85;;
69083;SDS011;56185;48.526;9.044;2024-03-02T06:33:23;16.30;;;8.35;;
69083;SDS011;56185;48.526;9.044;2024-03-02T06:35:48;12.38;;;8.02;;
69083;SDS011;56185;48.526;9.044;2024-03-02T06:38:13;13.82;;;8.20;;
69083;SDS011;56185;48.526;9.044;2024-03-02T06:40:39;14.00;;;8.73;;
69083;SDS011;56185;48.526;9.044;2024-03-02T06:43:04;13.93;;;8.13;;
69083;SDS011;56185;48.526;9.044;2024-03-02T06:45:29;12.65;;;7.90;;
69083;SDS011;56185;48.526;9.044;2024-03-02T06:47:54;12.63;;;8.00;;
69083;SDS011;56185;48.526;9.044;2024-03-02T06:50:20;15.60;;;8.75;;
69083;SDS011;56185;48.526;9.044;2024-03-02T06:52:45;14.68;;;8.38;;
69083;SDS011;56185;48.526;9.044;2024-03-02T06:55:10;13.23;;;8.40;;
69083;SDS011;56185;48.526;9.044;2024-03-02T06:57:35;15.27;;;9.30;;
69083;SDS011;56185;48.526;9.044;2024-03-02T07:00:01;13.07;;;7.90;;
69083;SDS011;56185;48.526;9.044;2024-03-02T07:02:26;10.95;;;7.43;;
69083;SDS011;56185;48.526;9.044;2024-03-02T07:04:51;11.68;;;7.30;;
69083;SDS011;56185;48.526;9.044;2024-03-02T07:07:16;10.18;;;6.82;;
69083;SDS011;56185;48.526;9.044;2024-03-02T07:09:42;10.45;;;7.13;;
69083;SDS011;56185;48.526;9.044;2024-03-02T07:12:07;11.05;;;7.35;;
69083;SDS011;56185;48.526;9.044;2024-03-02T07:14:32;11.30;;;7.25;;
69083;SDS011;56185;48.526;9.044;2024-03-02T07:16:57;12.35;;;7.30;;
69083;SDS011;56185;48.526;9.044;2024-03-02T07:19:23;12.48;;;7.85;;
69083;SDS011;56185;48.526;9.044;2024-03-02T07:21:48;16.85;;;7.47;;
69083;SDS011;56185;48.526;9.044;2024-03-02T07:24:13;11.93;;;7.57;;
69083;SDS011;56185;48.526;9.044;2024-03-02T07:26:39;13.75;;;8.57;;
69083;SDS011;56185;48.526;9.044;2024-03-02T07:29:04;12.93;;;8.57;;
69083;SDS011;56185;48.526;9.044;2024-03-02T07:31:29;13.07;;;8.50;;
69083;SDS011;56185;48.526;9.044;2024-03-02T07:33:55;15.07;;;8.80;;
69083;SDS011;56185;48.526;9.044;2024-03-02T07:36:20;12.47;;;8.40;;
69083;SDS011;56185;48.526;9.044;2024-03-02T07:38:45;11.23;;;8.05;;
69083;SDS011;56185;48.526;9.044;2024-03-02T07:41:10;12.13;;;7.70;;
69083;SDS011;56185;48.526;9.044;2024-03-02T07:43:36;11.95;;;8.15;;
69083;SDS011;56185;48.526;9.044;2024-03-02T07:46:01;11.52;;;7.93;;
69083;SDS011;56185;48.526;9.044;2024-03-02T07:48:27;12.02;;;8.10;;
69083;SDS011;56185;48.526;9.044;2024-03-02T07:50:52;11.93;;;7.95;;
69083;SDS011;56185;48.526;9.044;2024-03-02T07:53:17;14.75;;;8.57;;
69083;SDS011;56185;48.526;9.044;2024-03-02T07:55:42;11.98;;;8.00;;
69083;SDS011;56185;48.526;9.044;2024-03-02T07:58:08;12.63;;;7.93;;
69083;SDS011;56185;48.526;9.044;2024-03-02T08:00:33;12.65;;;8.23;;
69083;SDS011;56185;48.526;9.044;2024-03-02T08:02:59;11.90;;;8.23;;
69083;SDS011;56185;48.526;9.044;2024-03-02T08:05:25;15.30;;;9.82;;
69083;SDS011;56185;48.526;9.044;2024-03-02T08:07:50;17.25;;;11.07;;
69083;SDS011;56185;48.526;9.044;2024-03-02T08:10:16;15.88;;;10.23;;
69083;SDS011;56185;48.526;9.044;2024-03-02T08:12:41;15.98;;;9.85;;
69083;SDS011;56185;48.526;9.044;2024-03-02T08:15:06;15.00;;;9.63;;
69083;SDS011;56185;48.526;9.044;2024-03-02T08:17:32;15.52;;;9.23;;
69083;SDS011;56185;48.526;9.044;2024-03-02T08:19:57;14.15;;;9.32;;
69083;SDS011;56185;48.526;9.044;2024-03-02T08:22:23;15.23;;;9.30;;
69083;SDS011;56185;48.526;9.044;2024-03-02T08:24:49;14.23;;;9.55;;
69083;SDS011;56185;48.526;9.044;2024-03-02T08:27:14;14.48;;;9.00;;
69083;SDS011;56185;48.526;9.044;2024-03-02T08:29:39;12.98;;;8.35;;
69083;SDS011;56185;48.526;9.044;2024-03-02T08:32:05;12.48;;;8.38;;
69083;SDS011;56185;48.526;9.044;2024-03-02T08:34:30;11.30;;;8.23;;
69083;SDS011;56185;48.526;9.044;2024-03-02T08:36:56;10.30;;;7.18;;
69083;SDS011;56185;48.526;9.044;2024-03-02T08:39:21;10.63;;;6.93;;
69083;SDS011;56185;48.526;9.044;2024-03-02T08:41:46;9.90;;;6.97;;
69083;SDS011;56185;48.526;9.044;2024-03-02T08:44:12;12.15;;;7.60;;
69083;SDS011;56185;48.526;9.044;2024-03-02T08:46:38;10.68;;;7.32;;
69083;SDS011;56185;48.526;9.044;2024-03-02T08:49:04;8.82;;;6.50;;
69083;SDS011;56185;48.526;9.044;2024-03-02T08:51:30;8.63;;;5.85;;
69083;SDS011;56185;48.526;9.044;2024-03-02T08:53:55;9.30;;;7.05;;
69083;SDS011;56185;48.526;9.044;2024-03-02T08:56:21;9.85;;;6.88;;
69083;SDS011;56185;48.526;9.044;2024-03-02T08:58:46;9.55;;;7.10;;
69083;SDS011;56185;48.526;9.044;2024-03-02T09:01:11;8.98;;;6.45;;
69083;SDS011;56185;48.526;9.044;2024-03-02T09:03:36;9.80;;;7.18;;
69083;SDS011;56185;48.526;9.044;2024-03-02T09:06:02;11.20;;;7.75;;
69083;SDS011;56185;48.526;9.044;2024-03-02T09:08:28;10.57;;;7.88;;
69083;SDS011;56185;48.526;9.044;2024-03-02T09:10:53;13.02;;;8.98;;
69083;SDS011;56185;48.526;9.044;2024-03-02T09:13:19;10.85;;;7.75;;
69083;SDS011;56185;48.526;9.044;2024-03-02T09:15:45;10.65;;;7.63;;
69083;SDS011;56185;48.526;9.044;2024-03-02T09:18:10;11.73;;;7.57;;
69083;SDS011;56185;48.526;9.044;2024-03-02T09:20:35;11.65;;;7.75;;
69083;SDS011;56185;48.526;9.044;2024-03-02T09:23:00;10.80;;;7.72;;
69083;SDS011;56185;48.526;9.044;2024-03-02T09:25:26;11.60;;;8.57;;
69083;SDS011;56185;48.526;9.044;2024-03-02T09:27:51;11.80;;;8.30;;
69083;SDS011;56185;48.526;9.044;2024-03-02T09:30:16;11.10;;;7.50;;
69083;SDS011;56185;48.526;9.044;2024-03-02T09:32:42;9.13;;;7.07;;
69083;SDS011;56185;48.526;9.044;2024-03-02T09:35:07;9.52;;;7.07;;
69083;SDS011;56185;48.526;9.044;2024-03-02T09:37:32;10.10;;;6.70;;
69083;SDS011;56185;48.526;9.044;2024-03-02T09:39:57;10.27;;;6.82;;
69083;SDS011;56185;48.526;9.044;2024-03-02T09:42:23;11.50;;;6.45;;
69083;SDS011;56185;48.526;9.044;2024-03-02T09:44:49;10.02;;;6.40;;
69083;SDS011;56185;48.526;9.044;2024-03-02T09:47:14;11.43;;;6.78;;
69083;SDS011;56185;48.526;9.044;2024-03-02T09:49:39;8.68;;;6.05;;
69083;SDS011;56185;48.526;9.044;2024-03-02T09:52:05;9.05;;;6.20;;
69083;SDS011;56185;48.526;9.044;2024-03-02T09:54:31;7.68;;;5.45;;
69083;SDS011;56185;48.526;9.044;2024-03-02T09:56:57;8.57;;;5.38;;
69083;SDS011;56185;48.526;9.044;2024-03-02T09:59:22;8.80;;;5.55;;
69083;SDS011;56185;48.526;9.044;2024-03-02T10:02:00;8.45;;;5.20;;
69083;SDS011;56185;48.526;9.044;2024-03-02T10:04:26;7.70;;;5.40;;
69083;SDS011;56185;48.526;9.044;2024-03-02T10:09:53;7.75;;;5.30;;
69083;SDS011;56185;48.526;9.044;2024-03-02T10:12:18;6.47;;;4.73;;
69083;SDS011;56185;48.526;9.044;2024-03-02T10:14:43;7.40;;;4.72;;
69083;SDS011;56185;48.526;9.044;2024-03-02T10:17:10;7.30;;;4.45;;
69083;SDS011;56185;48.526;9.044;2024-03-02T10:19:37;5.10;;;3.88;;
69083;SDS011;56185;48.526;9.044;2024-03-02T10:22:03;6.28;;;4.13;;
69083;SDS011;56185;48.526;9.044;2024-03-02T10:24:40;5.85;;;4.30;;
69083;SDS011;56185;48.526;9.044;2024-03-02T10:27:07;6.82;;;4.85;;
69083;SDS011;56185;48.526;9.044;2024-03-02T10:29:36;6.28;;;4.47;;
69083;SDS011;56185;48.526;9.044;2024-03-02T10:32:02;7.75;;;4.75;;
69083;SDS011;56185;48.526;9.044;2024-03-02T10:34:27;6.60;;;4.20;;
69083;SDS011;56185;48.526;9.044;2024-03-02T10:36:53;6.10;;;4.35;;
69083;SDS011;56185;48.526;9.044;2024-03-02T10:39:19;6.68;;;4.10;;
69083;SDS011;56185;48.526;9.044;2024-03-02T10:41:45;5.90;;;4.07;;
69083;SDS011;56185;48.526;9.044;2024-03-02T10:44:13;5.32;;;3.95;;
69083;SDS011;56185;48.526;9.044;2024-03-02T10:46:38;5.75;;;4.13;;
69083;SDS011;56185;48.526;9.044;2024-03-02T10:49:04;8.30;;;4.10;;
69083;SDS011;56185;48.526;9.044;2024-03-02T10:51:31;5.82;;;4.07;;
69083;SDS011;56185;48.526;9.044;2024-03-02T10:53:58;6.45;;;3.92;;
69083;SDS011;56185;48.526;9.044;2024-03-02T10:56:27;5.95;;;3.80;;
69083;SDS011;56185;48.526;9.044;2024-03-02T10:59:13;5.03;;;3.90;;
69083;SDS011;56185;48.526;9.044;2024-03-02T11:01:47;4.80;;;3.30;;
69083;SDS011;56185;48.526;9.044;2024-03-02T11:04:13;4.75;;;3.25;;
69083;SDS011;56185;48.526;9.044;2024-03-02T11:06:42;5.22;;;3.35;;
69083;SDS011;56185;48.526;9.044;2024-03-02T11:09:12;4.97;;;3.20;;
69083;SDS011;56185;48.526;9.044;2024-03-02T11:11:42;3.13;;;2.70;;
69083;SDS011;56185;48.526;9.044;2024-03-02T11:14:13;3.70;;;2.70;;
69083;SDS011;56185;48.526;9.044;2024-03-02T11:16:39;3.25;;;2.50;;
69083;SDS011;56185;48.526;9.044;2024-03-02T11:19:05;3.50;;;2.60;;
69083;SDS011;56185;48.526;9.044;2024-03-02T11:21:32;3.92;;;2.90;;
69083;SDS011;56185;48.526;9.044;2024-03-02T11:23:58;3.47;;;2.45;;
69083;SDS011;56185;48.526;9.044;2024-03-02T11:26:24;3.40;;;2.50;;
69083;SDS011;56185;48.526;9.044;2024-03-02T11:28:49;4.20;;;2.50;;
69083;SDS011;56185;48.526;9.044;2024-03-02T11:31:14;4.03;;;2.70;;
69083;SDS011;56185;48.526;9.044;2024-03-02T11:33:39;3.00;;;2.15;;
69083;SDS011;56185;48.526;9.044;2024-03-02T11:36:08;4.00;;;2.20;;
69083;SDS011;56185;48.526;9.044;2024-03-02T11:38:33;2.80;;;2.10;;
69083;SDS011;56185;48.526;9.044;2024-03-02T11:41:00;3.70;;;2.40;;
69083;SDS011;56185;48.526;9.044;2024-03-02T11:43:32;3.78;;;1.90;;
69083;SDS011;56185;48.526;9.044;2024-03-02T11:45:58;2.97;;;2.03;;
69083;SDS011;56185;48.526;9.044;2024-03-02T11:48:28;2.63;;;2.00;;
69083;SDS011;56185;48.526;9.044;2024-03-02T11:50:54;6.35;;;2.15;;
69083;SDS011;56185;48.526;9.044;2024-03-02T11:53:23;3.03;;;2.03;;
69083;SDS011;56185;48.526;9.044;2024-03-02T11:55:48;4.05;;;2.17;;
69083;SDS011;56185;48.526;9.044;2024-03-02T11:58:14;3.35;;;1.95;;
69083;SDS011;56185;48.526;9.044;2024-03-02T12:00:40;2.95;;;2.05;;
69083;SDS011;56185;48.526;9.044;2024-03-02T12:03:07;2.50;;;1.80;;
69083;SDS011;56185;48.526;9.044;2024-03-02T12:05:33;3.25;;;2.00;;
69083;SDS011;56185;48.526;9.044;2024-03-02T12:08:00;4.47;;;2.13;;
69083;SDS011;56185;48.526;9.044;2024-03-02T12:10:29;2.95;;;2.20;;
69083;SDS011;56185;48.526;9.044;2024-03-02T12:12:59;2.80;;;1.92;;
69083;SDS011;56185;48.526;9.044;2024-03-02T12:15:35;3.65;;;2.00;;
69083;SDS011;56185;48.526;9.044;2024-03-02T12:18:01;3.38;;;1.98;;
69083;SDS011;56185;48.526;9.044;2024-03-02T12:20:27;2.95;;;2.00;;
69083;SDS011;56185;48.526;9.044;2024-03-02T12:22:53;2.13;;;1.52;;
69083;SDS011;56185;48.526;9.044;2024-03-02T12:25:20;3.30;;;1.58;;
69083;SDS011;56185;48.526;9.044;2024-03-02T12:27:46;2.88;;;1.60;;
69083;SDS011;56185;48.526;9.044;2024-03-02T12:30:14;2.10;;;1.50;;
69083;SDS011;56185;48.526;9.044;2024-03-02T12:32:41;2.42;;;1.50;;
69083;SDS011;56185;48.526;9.044;2024-03-02T12:35:06;2.83;;;1.58;;
69083;SDS011;56185;48.526;9.044;2024-03-02T12:37:32;2.22;;;1.40;;
69083;SDS011;56185;48.526;9.044;2024-03-02T12:39:57;1.80;;;1.30;;
69083;SDS011;56185;48.526;9.044;2024-03-02T12:42:23;2.30;;;1.50;;
69083;SDS011;56185;48.526;9.044;2024-03-02T12:44:49;2.47;;;1.70;;
69083;SDS011;56185;48.526;9.044;2024-03-02T12:47:14;2.43;;;1.60;;
69083;SDS011;56185;48.526;9.044;2024-03-02T12:49:40;2.95;;;1.48;;
69083;SDS011;56185;48.526;9.044;2024-03-02T12:52:05;2.38;;;1.40;;
69083;SDS011;56185;48.526;9.044;2024-03-02T12:54:31;2.85;;;1.35;;
69083;SDS011;56185;48.526;9.044;2024-03-02T12:56:57;2.90;;;1.33;;
69083;SDS011;56185;48.526;9.044;2024-03-02T12:59:23;2.10;;;1.63;;
69083;SDS011;56185;48.526;9.044;2024-03-02T13:01:50;1.77;;;1.40;;
69083;SDS011;56185;48.526;9.044;2024-03-02T13:04:22;2.13;;;1.30;;
69083;SDS011;56185;48.526;9.044;2024-03-02T13:06:51;2.42;;;1.40;;
69083;SDS011;56185;48.526;9.044;2024-03-02T13:09:17;2.55;;;2.00;;
69083;SDS011;56185;48.526;9.044;2024-03-02T13:11:42;2.55;;;1.70;;
69083;SDS011;56185;48.526;9.044;2024-03-02T13:14:08;1.98;;;1.50;;
69083;SDS011;56185;48.526;9.044;2024-03-02T13:16:41;1.98;;;1.60;;
69083;SDS011;56185;48.526;9.044;2024-03-02T13:19:13;3.08;;;1.60;;
69083;SDS011;56185;48.526;9.044;2024-03-02T13:21:38;3.05;;;1.50;;
69083;SDS011;56185;48.526;9.044;2024-03-02T13:24:04;3.03;;;1.63;;
69083;SDS011;56185;48.526;9.044;2024-03-02T13:26:31;3.28;;;1.67;;
69083;SDS011;56185;48.526;9.044;2024-03-02T13:28:59;2.30;;;1.52;;
69083;SDS011;56185;48.526;9.044;2024-03-02T13:31:25;2.78;;;1.60;;
69083;SDS011;56185;48.526;9.044;2024-03-02T13:33:50;1.88;;;1.45;;
69083;SDS011;56185;48.526;9.044;2024-03-02T13:36:15;2.07;;;1.40;;
69083;SDS011;56185;48.526;9.044;2024-03-02T13:38:41;2.80;;;1.60;;
69083;SDS011;56185;48.526;9.044;2024-03-02T13:41:06;1.88;;;1.50;;
69083;SDS011;56185;48.526;9.044;2024-03-02T13:43:31;1.92;;;1.55;;
69083;SDS011;56185;48.526;9.044;2024-03-02T13:45:59;2.25;;;1.65;;
69083;SDS011;56185;48.526;9.044;2024-03-02T13:48:24;2.13;;;1.40;;
69083;SDS011;56185;48.526;9.044;2024-03-02T13:50:50;2.42;;;1.52;;
69083;SDS011;56185;48.526;9.044;2024-03-02T13:53:15;1.83;;;1.43;;
69083;SDS011;56185;48.526;9.044;2024-03-02T13:55:40;2.03;;;1.47;;
69083;SDS011;56185;48.526;9.044;2024-03-02T13:58:05;1.93;;;1.37;;
69083;SDS011;56185;48.526;9.044;2024-03-02T14:00:31;1.98;;;1.42;;
69083;SDS011;56185;48.526;9.044;2024-03-02T14:02:57;2.70;;;1.45;;
69083;SDS011;56185;48.526;9.044;2024-03-02T14:05:23;1.98;;;1.25;;
69083;SDS011;56185;48.526;9.044;2024-03-02T14:07:48;1.80;;;1.17;;
69083;SDS011;56185;48.526;9.044;2024-03-02T14:10:15;1.63;;;1.27;;
69083;SDS011;56185;48.526;9.044;2024-03-02T14:12:40;1.70;;;1.20;;
69083;SDS011;56185;48.526;9.044;2024-03-02T14:15:06;2.17;;;1.20;;
69083;SDS011;56185;48.526;9.044;2024-03-02T14:17:32;1.83;;;1.10;;
69083;SDS011;56185;48.526;9.044;2024-03-02T14:19:57;1.67;;;1.10;;
69083;SDS011;56185;48.526;9.044;2024-03-02T14:22:27;1.85;;;1.10;;
69083;SDS011;56185;48.526;9.044;2024-03-02T14:24:52;1.77;;;1.00;;
69083;SDS011;56185;48.526;9.044;2024-03-02T14:27:18;1.50;;;1.00;;
69083;SDS011;56185;48.526;9.044;2024-03-02T14:29:44;1.77;;;1.10;;
69083;SDS011;56185;48.526;9.044;2024-03-02T14:32:09;1.77;;;1.20;;
69083;SDS011;56185;48.526;9.044;2024-03-02T14:34:35;3.03;;;1.60;;
69083;SDS011;56185;48.526;9.044;2024-03-02T14:37:00;1.38;;;1.00;;
69083;SDS011;56185;48.526;9.044;2024-03-02T14:39:25;2.00;;;1.60;;